This is the latest recevied weather packets stored in our database for station/object EFOU. If no packets are shown the sender has not sent any weather packets the latest 1 day(s).
| Time | Temp. | Humidity | Pressure | Rain* | Wind** | Luminosity | Snow |
|---|---|---|---|---|---|---|---|
| 1836274166 | 6.11° C | 100% | 1004.4 hPa | - | 3.13 m/s, 127° | - | - |
| 1778052438 | 2.22° C | 91% | 1004.5 hPa | - | 3.13 m/s, 264° | - | - |
| 1778051238 | 2.22° C | 91% | 1004.2 hPa | - | 3.58 m/s, 267° | - | - |
| 1778050038 | 2.78° C | 92% | 1003.9 hPa | - | 4.02 m/s, 269° | - | - |
| 1778048838 | 2.78° C | 93% | 1003.5 hPa | - | 4.02 m/s, 278° | - | - |
| 1778047637 | 2.78° C | 94% | 1003.2 hPa | - | 4.92 m/s, 279° | - | - |
| 1778046437 | 2.22° C | 92% | 1003 hPa | - | 4.47 m/s, 275° | - | - |
| 1778045238 | 2.78° C | 92% | 1002.7 hPa | - | 5.36 m/s, 285° | - | - |
| 1778044037 | 2.78° C | 94% | 1002.5 hPa | - | 4.47 m/s, 289° | - | - |
| 1778042837 | 2.22° C | 92% | 1002.3 hPa | - | 4.92 m/s, 286° | - | - |
| 1778041637 | 2.22° C | 93% | 1002.1 hPa | - | 4.02 m/s, 288° | - | - |
| 1778040437 | 2.22° C | 93% | 1001.9 hPa | - | 4.92 m/s, 290° | - | - |
| 1778039237 | 2.22° C | 92% | 1001.7 hPa | - | 4.92 m/s, 293° | - | - |
| 1778038037 | 2.22° C | 92% | 1001.6 hPa | - | 4.47 m/s, 290° | - | - |
| 1778036837 | 2.78° C | 92% | 1001.4 hPa | - | 4.47 m/s, 293° | - | - |
| 1778035637 | 2.78° C | 90% | 1001.3 hPa | - | 4.47 m/s, 292° | - | - |
| 1778034437 | 2.78° C | 89% | 1001.1 hPa | - | 4.92 m/s, 291° | - | - |
| 1778033236 | 2.78° C | 90% | 1001 hPa | - | 4.02 m/s, 295° | - | - |
| 1778032037 | 2.78° C | 90% | 1000.9 hPa | - | 4.92 m/s, 292° | - | - |
| 1778030836 | 3.33° C | 89% | 1000.8 hPa | - | 4.02 m/s, 292° | - | - |
| 1778029636 | 3.33° C | 88% | 1000.7 hPa | - | 4.02 m/s, 287° | - | - |
| 1778028436 | 2.78° C | 89% | 1000.5 hPa | - | 4.92 m/s, 289° | - | - |
| 1778027236 | 2.78° C | 90% | 1000.5 hPa | - | 4.47 m/s, 290° | - | - |
| 1778026036 | 2.78° C | 90% | 1000.4 hPa | - | 5.81 m/s, 289° | - | - |
| 1778024836 | 2.78° C | 90% | 1000.3 hPa | - | 5.81 m/s, 289° | - | - |
* Rain since midnight (hover to see other rain measurements)
** Current wind speed in m/s (hover to see current wind gust speed)